クライストチャーチ の空港の天気 - METARとTAF

クライストチャーチ国際空港 ( NZCH / CHC ) - ニュージーランド クライストチャーチ
飛行場実況気象(Metar)
観測時間12/10 18:00 NZDT (12/10 05:00 UTC)
風向・風速東北東 6m/s
視程10km以上
天気現象
全天を覆う雲 雲底高度 670m
気温14℃
湿度72%
気圧1017hPa
METARNZCH 100500Z AUTO 06011KT 9999 OVC022/// 14/09 Q1017 NOSIG
過去の天気等 Google飛行場航空写真 Wunderground天気予報

過去48時間のMETAR

飛行場予報(TAF)
発表時間: 12/10 12:04 NZDT (12/09 23:04 UTC)
予報対象時間: 10日13時 NZDT ~ 11日13時 NZDT
風向・風速南 5m/s
視程10km以上
天気現象弱い雨
全天の8割程度の雲 雲底高度 1220m
10日14時 NZDT ~ 10日16時 NZDT に徐々に
風向・風速北東 6m/s
10日23時 NZDT ~ 11日1時 NZDT に徐々に
全天の8割程度の雲 雲底高度 370m
11日8時 NZDT ~ 11日10時 NZDT に徐々に
少しの雲 雲底高度 370m
全天の8割程度の雲 雲底高度 610m
TAF NZCH 092304Z 1000/1100 19010KT 9999 -RA BKN040
BECMG 1001/1003 04012KT
BECMG 1010/1012 BKN012
BECMG 1019/1021 FEW012 BKN020